Ever Unicorn — 9V7963 — position and weather

sailwx.info

Track history (hours):
 
Tides and Currents Weather Stations Pressure Air Temp Water Temp Dewpoint Dewpoint Depression Visibility Wind Speed Wind Dir Waves Ship Positions

Ever Unicorn

Last reported at 2014-Dec-21 01:10 UTC. Time now 2014-Dec-21 10:43 UTC.
Position N 36°01' E 120°13'.

Length 285 m; draft 10.6 m.

Type: Ship (hazmat cat D). MMSI: 564995000.

Date/timePositionNaut miles runAvg speedWind from/ knotsBaromVisibWave heightAir tempDewpointWater temp
2014-Dec-21 01:10N 36°01' E 120°13'0 0.0
2014-Dec-21 00:31N 36°01' E 120°13'0 0.0
2014-Dec-20 23:31N 36°01' E 120°13'0 0.0
2014-Dec-20 22:32N 36°01' E 120°13'6 5.9
2014-Dec-20 21:34N 36°02' E 120°20'1211.1
2014-Dec-20 20:28N 35°59' E 120°34'1010.7
2014-Dec-20 19:34N 35°57' E 120°46'  
2014-Dec-17 10:33N 33°57' E 134°55'1717.3
2014-Dec-17 09:33N 34°14' E 134°58'1414.0
2014-Dec-17 08:33N 34°26' E 135°07'1515.1
2014-Dec-17 07:33N 34°36' E 135°20'4 4.0
2014-Dec-17 06:31N 34°39' E 135°24'0 0.0
2014-Dec-17 05:31N 34°39' E 135°24'0 0.0
2014-Dec-17 04:31N 34°39' E 135°24'0 0.0
2014-Dec-17 03:34N 34°39' E 135°24'0 0.0
2014-Dec-17 02:34N 34°39' E 135°24'0 0.0
2014-Dec-17 01:34N 34°39' E 135°24'0 0.0
2014-Dec-17 00:34N 34°39' E 135°24'0 0.0
2014-Dec-16 23:34N 34°39' E 135°24'0 0.1
2014-Dec-16 22:33N 34°39' E 135°24'1010.6
2014-Dec-16 21:33N 34°32' E 135°15'1717.2
2014-Dec-16 20:33N 34°19' E 135°01'1212.4
2014-Dec-16 19:33N 34°07' E 134°60'8 8.3
2014-Dec-16 18:33N 33°58' E 134°59'24312.8
2014-Dec-15 23:32N 35°06' E 139°43'1212.3
2014-Dec-15 22:34N 35°18' E 139°44'1211.7
2014-Dec-15 21:33N 35°29' E 139°50'8 8.0
2014-Dec-15 20:30N 35°37' E 139°47'0 0.0
2014-Dec-15 19:30N 35°37' E 139°47'0 0.0
2014-Dec-15 18:30N 35°37' E 139°47'0 0.0
2014-Dec-15 17:30N 35°37' E 139°47'0 0.0
2014-Dec-15 16:30N 35°37' E 139°47'0 0.0
2014-Dec-15 15:33N 35°37' E 139°47'0 0.0
2014-Dec-15 14:27N 35°37' E 139°47'0 0.0
2014-Dec-15 11:30N 35°37' E 139°47'0 0.0
2014-Dec-15 10:33N 35°37' E 139°47'0 0.0
2014-Dec-15 08:27N 35°37' E 139°47'0 0.0
2014-Dec-15 07:30N 35°37' E 139°47'0 0.0
2014-Dec-15 06:34N 35°37' E 139°47'0 0.0
2014-Dec-15 05:18N 35°37' E 139°47'0 0.0
2014-Dec-15 04:14N 35°37' E 139°47'0 0.0
2014-Dec-15 03:27N 35°37' E 139°47'3 3.8
2014-Dec-15 02:33N 35°34' E 139°49'1111.2
2014-Dec-15 01:34N 35°23' E 139°46'1212.0
2014-Dec-15 00:33N 35°11' E 139°47'7 7.4
2014-Dec-14 23:33N 35°04' E 139°44'4 3.6
2014-Dec-14 22:20N 34°60' E 139°43'23 8.1
2014-Dec-14 19:26N 34°55' E 140°11'  
Track history (hours):
 
Tides and Currents Weather Stations Pressure Air Temp Water Temp Dewpoint Dewpoint Depression Visibility Wind Speed Wind Dir Waves Ship Positions

Ever Unicorn

Last reported at 2014-Dec-21 01:10 UTC. Time now 2014-Dec-21 10:43 UTC.
Position N 36°01' E 120°13'.

Length 285 m; draft 10.6 m.

Type: Ship (hazmat cat D). MMSI: 564995000.

Date/timePositionNaut miles runAvg speedWind from/ knotsBaromVisibWave heightAir tempDewpointWater temp
2014-Dec-21 01:10N 36°01' E 120°13'0 0.0
2014-Dec-21 00:31N 36°01' E 120°13'0 0.0
2014-Dec-20 23:31N 36°01' E 120°13'0 0.0
2014-Dec-20 22:32N 36°01' E 120°13'6 5.9
2014-Dec-20 21:34N 36°02' E 120°20'1211.1
2014-Dec-20 20:28N 35°59' E 120°34'1010.7
2014-Dec-20 19:34N 35°57' E 120°46'  
2014-Dec-17 10:33N 33°57' E 134°55'1717.3
2014-Dec-17 09:33N 34°14' E 134°58'1414.0
2014-Dec-17 08:33N 34°26' E 135°07'1515.1
2014-Dec-17 07:33N 34°36' E 135°20'4 4.0
2014-Dec-17 06:31N 34°39' E 135°24'0 0.0
2014-Dec-17 05:31N 34°39' E 135°24'0 0.0
2014-Dec-17 04:31N 34°39' E 135°24'0 0.0
2014-Dec-17 03:34N 34°39' E 135°24'0 0.0
2014-Dec-17 02:34N 34°39' E 135°24'0 0.0
2014-Dec-17 01:34N 34°39' E 135°24'0 0.0
2014-Dec-17 00:34N 34°39' E 135°24'0 0.0
2014-Dec-16 23:34N 34°39' E 135°24'0 0.1
2014-Dec-16 22:33N 34°39' E 135°24'1010.6
2014-Dec-16 21:33N 34°32' E 135°15'1717.2
2014-Dec-16 20:33N 34°19' E 135°01'1212.4
2014-Dec-16 19:33N 34°07' E 134°60'8 8.3
2014-Dec-16 18:33N 33°58' E 134°59'24312.8
2014-Dec-15 23:32N 35°06' E 139°43'1212.3
2014-Dec-15 22:34N 35°18' E 139°44'1211.7
2014-Dec-15 21:33N 35°29' E 139°50'8 8.0
2014-Dec-15 20:30N 35°37' E 139°47'0 0.0
2014-Dec-15 19:30N 35°37' E 139°47'0 0.0
2014-Dec-15 18:30N 35°37' E 139°47'0 0.0
2014-Dec-15 17:30N 35°37' E 139°47'0 0.0
2014-Dec-15 16:30N 35°37' E 139°47'0 0.0
2014-Dec-15 15:33N 35°37' E 139°47'0 0.0
2014-Dec-15 14:27N 35°37' E 139°47'0 0.0
2014-Dec-15 11:30N 35°37' E 139°47'0 0.0
2014-Dec-15 10:33N 35°37' E 139°47'0 0.0
2014-Dec-15 08:27N 35°37' E 139°47'0 0.0
2014-Dec-15 07:30N 35°37' E 139°47'0 0.0
2014-Dec-15 06:34N 35°37' E 139°47'0 0.0
2014-Dec-15 05:18N 35°37' E 139°47'0 0.0
2014-Dec-15 04:14N 35°37' E 139°47'0 0.0
2014-Dec-15 03:27N 35°37' E 139°47'3 3.8
2014-Dec-15 02:33N 35°34' E 139°49'1111.2
2014-Dec-15 01:34N 35°23' E 139°46'1212.0
2014-Dec-15 00:33N 35°11' E 139°47'7 7.4
2014-Dec-14 23:33N 35°04' E 139°44'4 3.6
2014-Dec-14 22:20N 34°60' E 139°43'23 8.1
2014-Dec-14 19:26N 34°55' E 140°11'  

Dump ship's entire track history